createdAt,value
2023-04-10T00:02:06.432Z,89.96
2023-04-10T00:05:10.125Z,89.98
2023-04-10T00:08:12.074Z,90.28
2023-04-10T00:11:13.802Z,89.36
2023-04-10T00:14:15.693Z,89.38
2023-04-10T00:17:17.393Z,89.24
2023-04-10T00:20:20.657Z,89.92
2023-04-10T00:23:22.325Z,89.76
2023-04-10T00:26:24.055Z,89.71
2023-04-10T00:29:25.717Z,89.41
2023-04-10T00:32:27.727Z,88.73
2023-04-10T00:35:30.759Z,89.13
2023-04-10T00:38:32.676Z,88.57
2023-04-10T00:41:34.342Z,89.12
2023-04-10T00:44:36.024Z,89.75
2023-04-10T00:47:37.985Z,88.66
2023-04-10T00:50:41.075Z,88.03
2023-04-10T00:53:42.736Z,88.47
2023-04-10T00:56:45.204Z,88.58
2023-04-10T00:59:46.972Z,89.16
2023-04-10T01:02:49.176Z,90.37
2023-04-10T01:06:02.214Z,90.55
2023-04-10T01:09:10.389Z,90.01
2023-04-10T01:12:28.141Z,90.15
2023-04-10T01:15:37.427Z,90.15
2023-04-10T01:18:44.215Z,90.22
2023-04-10T01:21:48.764Z,90.21
2023-04-10T01:25:02.475Z,90.71
2023-04-10T01:28:24.794Z,90.84
2023-04-10T01:31:34.640Z,90.53
2023-04-10T01:34:41.073Z,89.80
2023-04-10T01:37:46.341Z,90.40
2023-04-10T01:40:52.335Z,90.45
2023-04-10T01:43:56.164Z,90.44
2023-04-10T01:47:00.954Z,90.76
2023-04-10T01:50:04.256Z,90.62
2023-04-10T01:53:07.361Z,90.89
2023-04-10T01:56:09.365Z,90.76
2023-04-10T01:59:11.845Z,90.20
2023-04-10T02:02:14.944Z,90.20
2023-04-10T02:05:17.227Z,90.39
2023-04-10T02:08:26.458Z,91.15
2023-04-10T02:11:37.696Z,90.87
2023-04-10T02:14:43.855Z,89.97
2023-04-10T02:17:48.971Z,89.64
2023-04-10T02:20:50.701Z,90.11
2023-04-10T02:23:52.832Z,90.69
2023-04-10T02:26:54.742Z,89.88
2023-04-10T02:29:56.884Z,89.54
2023-04-10T02:32:59.979Z,90.10
2023-04-10T02:36:01.772Z,89.73
2023-04-10T02:39:03.892Z,90.10
2023-04-10T02:42:05.587Z,89.73
2023-04-10T02:45:08.647Z,89.71
2023-04-10T02:48:11.703Z,90.37
2023-04-10T02:51:13.462Z,90.69
2023-04-10T02:54:15.167Z,90.41
2023-04-10T02:57:16.876Z,89.97
2023-04-10T03:00:18.715Z,90.47
2023-04-10T03:03:21.929Z,90.45
2023-04-10T03:06:23.735Z,90.54
2023-04-10T03:09:25.657Z,89.75
2023-04-10T03:12:27.328Z,89.10
2023-04-10T03:15:29.018Z,89.38
2023-04-10T03:18:32.062Z,89.49
2023-04-10T03:21:33.720Z,88.92
2023-04-10T03:24:35.398Z,89.46
2023-04-10T03:27:38.959Z,90.00
2023-04-10T03:30:40.868Z,89.78
2023-04-10T03:33:44.062Z,88.58
2023-04-10T03:36:45.850Z,89.40
2023-04-10T03:39:47.814Z,88.97
2023-04-10T03:42:49.444Z,89.10
2023-04-10T03:45:51.075Z,89.13
2023-04-10T03:48:54.293Z,88.98
2023-04-10T03:51:56.076Z,90.71
2023-04-10T03:54:58.190Z,90.21
2023-04-10T03:57:59.859Z,89.76
2023-04-10T04:01:01.920Z,89.40
2023-04-10T04:04:05.105Z,89.40
2023-04-10T04:07:06.897Z,89.71
2023-04-10T04:10:08.886Z,89.02
2023-04-10T04:13:10.897Z,88.88
2023-04-10T04:16:12.711Z,88.81
2023-04-10T04:19:15.833Z,89.46
2023-04-10T04:22:17.643Z,88.49
2023-04-10T04:25:19.689Z,88.29
2023-04-10T04:28:21.419Z,88.71
2023-04-10T04:31:23.072Z,89.09
2023-04-10T04:34:26.056Z,88.64
2023-04-10T04:37:27.661Z,89.69
2023-04-10T04:40:29.297Z,88.84
2023-04-10T04:43:30.955Z,87.97
2023-04-10T04:46:32.746Z,88.28
2023-04-10T04:49:35.851Z,88.66
2023-04-10T04:52:37.662Z,88.38
2023-04-10T04:55:39.367Z,88.61
2023-04-10T04:58:41.069Z,88.71
2023-04-10T05:01:42.817Z,88.51
2023-04-10T05:04:46.179Z,88.41
2023-04-10T05:07:48.067Z,88.59
2023-04-10T05:10:49.744Z,88.83
2023-04-10T05:13:51.463Z,88.40
2023-04-10T05:16:53.165Z,88.46
2023-04-10T05:19:56.150Z,88.39
2023-04-10T05:22:57.976Z,88.39
2023-04-10T05:25:59.876Z,88.31
2023-04-10T05:29:01.787Z,87.54
2023-04-10T05:32:03.699Z,87.84
2023-04-10T05:35:08.019Z,86.15
2023-04-10T05:38:10.197Z,84.93
2023-04-10T05:41:11.928Z,84.64
2023-04-10T05:44:13.616Z,83.83
2023-04-10T05:47:15.538Z,82.17
2023-04-10T05:50:18.588Z,81.67
2023-04-10T05:53:21.010Z,80.92
2023-04-10T05:56:22.999Z,80.00
2023-04-10T05:59:24.768Z,79.23
2023-04-10T06:02:26.650Z,78.68
2023-04-10T06:05:30.022Z,77.84
2023-04-10T06:08:31.812Z,77.35
2023-04-10T06:11:33.715Z,77.04
2023-04-10T06:14:35.693Z,75.82
2023-04-10T06:17:41.989Z,75.16
2023-04-10T06:20:45.256Z,75.32
2023-04-10T06:23:47.016Z,75.15
2023-04-10T06:26:48.653Z,75.54
2023-04-10T06:29:50.702Z,75.07
2023-04-10T06:32:53.185Z,76.56
2023-04-10T06:35:56.381Z,76.22
2023-04-10T06:38:58.113Z,73.10
2023-04-10T06:42:01.314Z,73.29
2023-04-10T06:45:04.131Z,72.43
2023-04-10T06:48:06.635Z,72.43
2023-04-10T06:51:09.727Z,72.02
2023-04-10T06:54:11.518Z,71.50
2023-04-10T06:57:13.236Z,71.42
2023-04-10T07:00:15.649Z,71.31
2023-04-10T07:03:17.892Z,70.36
2023-04-10T07:06:21.118Z,68.18
2023-04-10T07:09:23.164Z,68.75
2023-04-10T07:12:24.812Z,68.66
2023-04-10T07:15:26.433Z,69.52
2023-04-10T07:18:28.394Z,69.13
2023-04-10T07:21:31.680Z,68.19
2023-04-10T07:24:33.378Z,68.92
2023-04-10T07:27:35.312Z,65.73
2023-04-10T07:30:36.962Z,63.38
2023-04-10T07:33:38.926Z,62.99
2023-04-10T07:36:41.979Z,62.92
2023-04-10T07:39:43.723Z,61.12
2023-04-10T07:42:46.167Z,62.19
2023-04-10T07:45:48.022Z,60.86
2023-04-10T07:48:49.985Z,61.33
2023-04-10T07:51:53.311Z,60.40
2023-04-10T07:54:55.258Z,57.69
2023-04-10T07:57:56.919Z,58.64
2023-04-10T08:00:59.037Z,58.25
2023-04-10T08:04:02.098Z,57.13
2023-04-10T08:07:06.867Z,55.00
2023-04-10T08:10:09.787Z,55.04
2023-04-10T08:13:11.717Z,52.57
2023-04-10T08:16:13.581Z,53.49
2023-04-10T08:19:15.524Z,51.86
2023-04-10T08:22:18.523Z,51.04
2023-04-10T08:25:20.430Z,52.98
2023-04-10T08:28:22.412Z,49.27
2023-04-10T08:31:25.499Z,47.74
2023-04-10T08:34:27.207Z,48.47
2023-04-10T08:37:30.347Z,47.58
2023-04-10T08:40:32.036Z,48.02
2023-04-10T08:43:34.059Z,44.42
2023-04-10T08:46:37.052Z,42.24
2023-04-10T08:49:45.742Z,42.83
2023-04-10T08:52:52.024Z,43.04
2023-04-10T08:55:53.728Z,40.42
2023-04-10T08:58:55.752Z,39.97
2023-04-10T09:01:57.946Z,41.23
2023-04-10T09:05:02.839Z,41.38
2023-04-10T09:08:07.730Z,40.25
2023-04-10T09:11:09.390Z,42.64
2023-04-10T09:14:20.540Z,41.96
2023-04-10T09:17:23.611Z,38.70
2023-04-10T09:20:26.439Z,38.86
2023-04-10T09:23:29.484Z,38.98
2023-04-10T09:26:32.401Z,39.80
2023-04-10T09:29:42.509Z,39.35
2023-04-10T09:32:45.710Z,39.02
2023-04-10T09:35:47.437Z,39.60
2023-04-10T09:38:54.325Z,38.69
2023-04-10T09:41:55.973Z,39.86
2023-04-10T09:44:58.026Z,38.57
2023-04-10T09:48:05.252Z,38.45
2023-04-10T09:51:07.421Z,37.37
2023-04-10T09:54:10.448Z,38.42
2023-04-10T09:57:15.919Z,37.05
2023-04-10T10:00:17.917Z,37.55
2023-04-10T10:03:20.129Z,38.12
2023-04-10T10:06:22.753Z,38.25
2023-04-10T10:09:27.738Z,38.26
2023-04-10T10:12:35.667Z,38.38
2023-04-10T10:15:44.696Z,38.26
2023-04-10T10:18:54.890Z,39.27
2023-04-10T10:22:00.418Z,39.83
2023-04-10T10:25:04.892Z,40.45
2023-04-10T10:28:07.416Z,40.34
2023-04-10T10:31:10.233Z,40.55
2023-04-10T10:34:11.963Z,41.43
2023-04-10T10:37:14.158Z,40.70
2023-04-10T10:40:22.867Z,40.50
2023-04-10T10:43:31.587Z,39.86
2023-04-10T10:46:37.938Z,39.49
2023-04-10T10:49:55.575Z,39.11
2023-04-10T10:52:57.380Z,39.33
2023-04-10T10:56:34.481Z,39.74
2023-04-10T10:59:54.063Z,40.99
2023-04-10T11:03:28.420Z,41.28
2023-04-10T11:06:50.165Z,42.07
2023-04-10T11:09:53.104Z,42.91
2023-04-10T11:13:18.273Z,42.36
2023-04-10T11:16:20.929Z,42.81
2023-04-10T11:19:23.896Z,43.44
2023-04-10T11:22:26.175Z,43.61
2023-04-10T11:25:46.557Z,43.59
2023-04-10T11:28:49.757Z,43.60
2023-04-10T11:31:56.459Z,42.86
2023-04-10T11:34:58.362Z,43.56
2023-04-10T11:38:13.546Z,44.59
2023-04-10T11:41:15.214Z,44.40
2023-04-10T11:44:26.504Z,44.76
2023-04-10T11:47:28.312Z,46.13
2023-04-10T11:50:30.105Z,45.57
2023-04-10T11:53:31.809Z,45.09
2023-04-10T11:56:33.850Z,45.50
2023-04-10T11:59:36.991Z,45.17
2023-04-10T12:02:51.059Z,46.58
2023-04-10T12:05:52.835Z,47.13
2023-04-10T12:08:55.094Z,47.54
2023-04-10T12:11:59.871Z,47.71
2023-04-10T12:15:03.300Z,48.16
2023-04-10T12:18:05.027Z,47.98
2023-04-10T12:21:08.655Z,46.45
2023-04-10T12:24:11.000Z,46.47
2023-04-10T12:27:16.438Z,46.52
2023-04-10T12:30:20.038Z,45.66
2023-04-10T12:33:22.113Z,45.19
2023-04-10T12:36:24.898Z,45.78
2023-04-10T12:39:26.565Z,45.74
2023-04-10T12:42:28.274Z,44.95
2023-04-10T12:45:44.134Z,46.16
2023-04-10T12:48:45.823Z,45.57
2023-04-10T12:51:49.036Z,46.50
2023-04-10T12:54:50.677Z,47.07
2023-04-10T12:57:52.389Z,48.62
2023-04-10T13:00:55.615Z,49.49
2023-04-10T13:03:58.504Z,50.13
2023-04-10T13:07:00.194Z,50.32
2023-04-10T13:10:02.104Z,50.09
2023-04-10T13:13:04.472Z,49.99
2023-04-10T13:16:08.718Z,49.74
2023-04-10T13:19:10.416Z,49.29
2023-04-10T13:22:12.433Z,48.25
2023-04-10T13:25:14.119Z,49.03
2023-04-10T13:28:16.155Z,49.49
2023-04-10T13:31:19.289Z,48.21
2023-04-10T13:34:21.000Z,48.60
2023-04-10T13:37:22.706Z,48.38
2023-04-10T13:40:24.660Z,47.25
2023-04-10T13:43:26.556Z,48.24
2023-04-10T13:46:29.627Z,47.61
2023-04-10T13:49:31.631Z,47.24
2023-04-10T13:52:34.545Z,47.43
2023-04-10T13:55:36.267Z,47.45
2023-04-10T13:58:38.191Z,46.76
2023-04-10T14:01:41.384Z,47.64
2023-04-10T14:04:43.346Z,47.42
2023-04-10T14:07:45.060Z,47.16
2023-04-10T14:10:47.418Z,47.89
2023-04-10T14:13:49.168Z,48.53
2023-04-10T14:16:52.253Z,48.42
2023-04-10T14:19:53.979Z,47.89
2023-04-10T14:22:55.898Z,47.30
2023-04-10T14:25:57.596Z,47.26
2023-04-10T14:28:59.302Z,47.28
2023-04-10T14:32:02.345Z,47.40
2023-04-10T14:35:04.490Z,47.33
2023-04-10T14:38:06.486Z,47.09
2023-04-10T14:41:08.483Z,47.98
2023-04-10T14:44:10.192Z,48.18
2023-04-10T14:47:13.201Z,47.49
2023-04-10T14:50:14.809Z,47.89
2023-04-10T14:53:16.475Z,48.07
2023-04-10T14:56:18.120Z,47.87
2023-04-10T14:59:19.790Z,47.76
2023-04-10T15:02:23.228Z,48.47
2023-04-10T15:05:26.089Z,47.69
2023-04-10T15:08:28.048Z,47.07
2023-04-10T15:11:29.693Z,47.96
2023-04-10T15:14:31.359Z,48.09
2023-04-10T15:17:34.447Z,47.72
2023-04-10T15:20:36.093Z,47.71
2023-04-10T15:23:37.991Z,46.97
2023-04-10T15:26:43.446Z,47.56
2023-04-10T15:29:45.094Z,46.65
2023-04-10T15:32:48.507Z,46.72
2023-04-10T15:35:50.402Z,46.83
2023-04-10T15:38:52.565Z,46.57
2023-04-10T15:41:54.498Z,45.99
2023-04-10T15:44:56.106Z,45.27
2023-04-10T15:47:59.166Z,44.91
2023-04-10T15:51:04.035Z,44.92
2023-04-10T15:54:05.808Z,44.52
2023-04-10T15:57:07.474Z,44.93
2023-04-10T16:00:10.426Z,43.82
2023-04-10T16:03:13.861Z,44.08
2023-04-10T16:06:15.697Z,43.44
2023-04-10T16:09:25.418Z,43.63
2023-04-10T16:12:28.027Z,43.93
2023-04-10T16:15:30.173Z,43.95
2023-04-10T16:18:33.219Z,44.63
2023-04-10T16:21:35.159Z,44.75
2023-04-10T16:24:36.829Z,44.68
2023-04-10T16:27:38.659Z,44.71
2023-04-10T16:30:40.602Z,43.32
2023-04-10T16:33:43.837Z,43.96
2023-04-10T16:36:46.047Z,43.46
2023-04-10T16:39:48.020Z,44.16
2023-04-10T16:42:49.720Z,44.86
2023-04-10T16:45:54.858Z,44.67
2023-04-10T16:48:58.104Z,45.25
2023-04-10T16:51:59.902Z,45.81
2023-04-10T16:55:01.887Z,45.72
2023-04-10T16:58:03.917Z,46.07
2023-04-10T17:01:16.699Z,47.13
2023-04-10T17:04:19.966Z,54.57
2023-04-10T17:07:21.638Z,57.42
2023-04-10T17:10:23.420Z,59.22
2023-04-10T17:13:25.434Z,60.74
2023-04-10T17:16:27.518Z,62.13
2023-04-10T17:19:30.731Z,63.90
2023-04-10T17:22:32.689Z,66.22
2023-04-10T17:25:38.851Z,67.60
2023-04-10T17:28:41.716Z,68.10
2023-04-10T17:31:43.500Z,69.43
2023-04-10T17:34:46.983Z,70.21
2023-04-10T17:37:49.027Z,70.79
2023-04-10T17:40:51.114Z,71.59
2023-04-10T17:43:53.732Z,71.63
2023-04-10T17:46:55.855Z,72.60
2023-04-10T17:49:59.055Z,72.73
2023-04-10T17:53:01.468Z,73.20
2023-04-10T17:56:03.727Z,73.30
2023-04-10T17:59:05.666Z,73.82
2023-04-10T18:02:07.606Z,73.89
2023-04-10T18:05:11.116Z,73.62
2023-04-10T18:08:13.277Z,74.00
2023-04-10T18:11:15.498Z,73.97
2023-04-10T18:14:17.988Z,74.43
2023-04-10T18:17:20.246Z,74.60
2023-04-10T18:20:23.322Z,74.59
2023-04-10T18:23:25.414Z,74.50
2023-04-10T18:26:29.063Z,75.28
2023-04-10T18:29:30.870Z,75.12
2023-04-10T18:32:33.104Z,75.59
2023-04-10T18:35:36.164Z,75.58
2023-04-10T18:38:40.904Z,75.62
2023-04-10T18:41:42.987Z,75.32
2023-04-10T18:44:45.378Z,75.43
2023-04-10T18:47:47.285Z,75.25
2023-04-10T18:50:53.419Z,74.28
2023-04-10T18:53:56.265Z,74.54
2023-04-10T18:56:58.258Z,75.31
2023-04-10T19:00:00.462Z,75.02
2023-04-10T19:03:03.180Z,74.54
2023-04-10T19:06:07.375Z,74.23
2023-04-10T19:09:09.204Z,74.96
2023-04-10T19:12:12.311Z,74.58
2023-04-10T19:15:14.341Z,73.97
2023-04-10T19:18:16.672Z,74.39
2023-04-10T19:21:20.415Z,74.95
2023-04-10T19:24:22.154Z,75.10
2023-04-10T19:27:23.971Z,75.26
2023-04-10T19:30:26.098Z,75.43
2023-04-10T19:33:27.905Z,76.69
2023-04-10T19:36:30.988Z,76.73
2023-04-10T19:39:32.656Z,76.80
2023-04-10T19:42:34.448Z,76.94
2023-04-10T19:45:36.782Z,76.75
2023-04-10T19:48:38.882Z,77.80
2023-04-10T19:51:42.510Z,78.49
2023-04-10T19:54:44.270Z,78.25
2023-04-10T19:57:46.701Z,79.05
2023-04-10T20:00:48.841Z,79.17
2023-04-10T20:03:50.978Z,79.03
2023-04-10T20:06:54.465Z,79.05
2023-04-10T20:09:56.272Z,79.30
2023-04-10T20:12:58.222Z,78.52
2023-04-10T20:16:00.170Z,78.72
2023-04-10T20:19:01.904Z,79.31
2023-04-10T20:22:04.952Z,79.51
2023-04-10T20:25:07.893Z,79.17
2023-04-10T20:28:09.507Z,79.37
2023-04-10T20:31:12.664Z,79.08
2023-04-10T20:34:14.431Z,79.15
2023-04-10T20:37:17.566Z,79.58
2023-04-10T20:40:19.473Z,80.49
2023-04-10T20:43:21.587Z,80.46
2023-04-10T20:46:23.248Z,80.75
2023-04-10T20:49:25.023Z,81.60
2023-04-10T20:52:28.386Z,80.72
2023-04-10T20:55:30.116Z,80.94
2023-04-10T20:58:31.792Z,81.21
2023-04-10T21:01:34.554Z,80.91
2023-04-10T21:04:36.513Z,81.26
2023-04-10T21:07:39.681Z,80.84
2023-04-10T21:10:41.625Z,80.69
2023-04-10T21:13:43.536Z,80.25
2023-04-10T21:16:45.282Z,80.50
2023-04-10T21:19:47.235Z,80.78
2023-04-10T21:22:50.493Z,80.66
2023-04-10T21:25:52.236Z,80.07
2023-04-10T21:28:54.494Z,80.47
2023-04-10T21:31:56.726Z,80.85
2023-04-10T21:34:58.776Z,80.91
2023-04-10T21:38:02.488Z,81.21
2023-04-10T21:41:04.530Z,81.33
2023-04-10T21:44:06.629Z,81.65
2023-04-10T21:47:08.273Z,81.85
2023-04-10T21:50:10.551Z,81.20
2023-04-10T21:53:13.726Z,81.14
2023-04-10T21:56:15.479Z,80.73
2023-04-10T21:59:17.384Z,80.72
2023-04-10T22:02:19.427Z,80.25
2023-04-10T22:05:21.233Z,81.11
2023-04-10T22:08:24.332Z,81.22
2023-04-10T22:11:26.130Z,80.92
2023-04-10T22:14:28.320Z,81.57
2023-04-10T22:17:30.199Z,81.25
2023-04-10T22:20:31.926Z,80.77
2023-04-10T22:23:34.971Z,81.10
2023-04-10T22:26:36.690Z,81.47
2023-04-10T22:29:38.307Z,81.17
2023-04-10T22:32:40.062Z,80.93
2023-04-10T22:35:41.822Z,81.41
2023-04-10T22:38:44.870Z,80.92
2023-04-10T22:41:46.558Z,82.15
2023-04-10T22:44:48.235Z,82.34
2023-04-10T22:47:49.959Z,82.54
2023-04-10T22:50:51.620Z,82.95
2023-04-10T22:53:54.630Z,83.30
2023-04-10T22:56:57.020Z,83.46
2023-04-10T23:00:00.485Z,83.76
2023-04-10T23:03:02.360Z,84.22
2023-04-10T23:06:04.643Z,84.88
2023-04-10T23:09:07.690Z,84.95
2023-04-10T23:12:09.546Z,86.10
2023-04-10T23:15:11.366Z,85.88
2023-04-10T23:18:13.180Z,86.10
2023-04-10T23:21:14.898Z,86.36
2023-04-10T23:24:17.906Z,86.74
2023-04-10T23:27:19.498Z,86.56
2023-04-10T23:30:21.378Z,86.80
2023-04-10T23:33:23.236Z,86.72
2023-04-10T23:36:25.122Z,87.34
2023-04-10T23:39:28.485Z,87.26
2023-04-10T23:42:30.109Z,87.62
2023-04-10T23:45:31.994Z,88.09
2023-04-10T23:48:33.645Z,88.43
2023-04-10T23:51:37.581Z,88.54
2023-04-10T23:54:40.845Z,88.36
2023-04-10T23:57:42.775Z,88.35
